Time;durP1;ratioP1;P1;durP2;ratioP2;P2;SDS_P1;SDS_P2;PMS_P1;PMS_P2;Temp;Humidity;BMP_temperature;BMP_pressure;BME280_temperature;BME280_humidity;BME280_pressure;Samples;Min_cycle;Max_cycle;Signal;HPM_P1;HPM_P2
2022/10/09 00:01:05;;;;;;;;;;;18.70;70.00;;;;;;4429754;32;19994;-77
2022/10/09 00:03:31;;;;;;;;;;;18.70;70.50;;;;;;4429515;32;20005;-77
2022/10/09 00:05:57;;;;;;;;;;;18.70;70.00;;;;;;4429340;32;20510;-77
2022/10/09 00:08:23;;;;;;;;;;;18.70;70.00;;;;;;4428910;32;19995;-76
2022/10/09 00:10:49;;;;;;;;;;;18.70;70.00;;;;;;4429407;32;19991;-77
2022/10/09 00:13:15;;;;;;;;;;;18.70;70.00;;;;;;4428870;32;19978;-77
2022/10/09 00:15:43;;;;;;;;;;;18.70;70.00;;;;;;4429430;32;20511;-77
2022/10/09 00:18:09;;;;;;;;;;;18.70;70.00;;;;;;4429183;32;19983;-77
2022/10/09 00:20:42;;;;;;;;;;;18.70;70.00;;;;;;4429197;32;20118;-77
2022/10/09 00:23:09;;;;;;;;;;;18.70;70.00;;;;;;4430297;32;20450;-77
2022/10/09 00:25:35;;;;;;;;;;;18.70;69.90;;;;;;4428860;32;19993;-77
2022/10/09 00:28:01;;;;;;;;;;;18.70;69.90;;;;;;4414464;32;20097;-77
2022/10/09 00:30:27;;;;;;;;;;;18.70;69.90;;;;;;4428713;32;20353;-77
2022/10/09 00:32:53;;;;;;;;;;;18.60;69.90;;;;;;4428542;32;20480;-77
2022/10/09 00:35:19;;;;;;;;;;;18.70;69.90;;;;;;4429072;32;19982;-77
2022/10/09 00:37:45;;;;;;;;;;;18.60;69.80;;;;;;4428936;32;19994;-77
2022/10/09 00:40:11;;;;;;;;;;;18.70;69.80;;;;;;4428976;32;19991;-77
2022/10/09 00:42:37;;;;;;;;;;;18.60;69.80;;;;;;4428884;32;19963;-77
2022/10/09 00:45:02;;;;;;;;;;;18.60;69.80;;;;;;4429904;32;20066;-77
2022/10/09 00:47:31;;;;;;;;;;;18.60;69.70;;;;;;4429930;32;19998;-77
2022/10/09 00:50:03;;;;;;;;;;;18.60;69.70;;;;;;4429829;32;19983;-77
2022/10/09 00:52:30;;;;;;;;;;;18.60;69.70;;;;;;4429777;32;19971;-77
2022/10/09 00:54:56;;;;;;;;;;;18.60;69.70;;;;;;4429696;32;20407;-77
2022/10/09 00:57:22;;;;;;;;;;;18.60;69.70;;;;;;4429647;32;19982;-77
2022/10/09 00:59:47;;;;;;;;;;;18.60;69.70;;;;;;4403379;32;19963;-77
2022/10/09 01:02:14;;;;;;;;;;;18.60;69.70;;;;;;4429996;32;20026;-77
2022/10/09 01:04:40;;;;;;;;;;;18.60;69.70;;;;;;4429567;32;20097;-77
2022/10/09 01:07:05;;;;;;;;;;;18.60;69.70;;;;;;4429723;32;20313;-77
2022/10/09 01:09:37;;;;;;;;;;;18.60;69.70;;;;;;4429369;32;19971;-77
2022/10/09 01:12:23;;;;;;;;;;;18.50;69.60;;;;;;4429798;32;19998;-77
2022/10/09 01:15:06;;;;;;;;;;;18.50;69.60;;;;;;4420790;32;19970;-77
2022/10/09 01:17:36;;;;;;;;;;;18.50;69.60;;;;;;4430119;32;20011;-77
2022/10/09 01:20:02;;;;;;;;;;;18.50;69.60;;;;;;4425694;32;20108;-77
2022/10/09 01:22:47;;;;;;;;;;;18.50;69.60;;;;;;4416068;32;19982;-77
2022/10/09 01:25:25;;;;;;;;;;;18.50;69.60;;;;;;4430231;32;20034;-77
2022/10/09 01:27:51;;;;;;;;;;;18.50;69.60;;;;;;4429923;32;19990;-77
2022/10/09 01:30:17;;;;;;;;;;;18.50;69.60;;;;;;4416256;32;20045;-77
2022/10/09 01:32:45;;;;;;;;;;;18.50;69.60;;;;;;4429698;32;20400;-77
2022/10/09 01:35:13;;;;;;;;;;;18.50;69.60;;;;;;4430062;32;19990;-77
2022/10/09 01:37:42;;;;;;;;;;;18.50;69.50;;;;;;4429437;32;19983;-77
2022/10/09 01:40:08;;;;;;;;;;;18.50;69.50;;;;;;4429894;32;20037;-77
2022/10/09 01:42:34;;;;;;;;;;;18.50;69.50;;;;;;4430502;32;20034;-77
2022/10/09 01:45:00;;;;;;;;;;;18.50;69.50;;;;;;4432248;32;19959;-77
2022/10/09 01:47:26;;;;;;;;;;;18.50;69.50;;;;;;4432848;32;19982;-77
2022/10/09 01:49:53;;;;;;;;;;;18.50;69.50;;;;;;4432559;32;20390;-77
2022/10/09 01:52:37;;;;;;;;;;;18.50;69.40;;;;;;4432646;32;20328;-77
2022/10/09 01:55:12;;;;;;;;;;;18.50;69.40;;;;;;4432497;32;20027;-77
2022/10/09 01:57:37;;;;;;;;;;;18.50;69.40;;;;;;4432589;32;20049;-77
2022/10/09 02:00:06;;;;;;;;;;;18.40;69.30;;;;;;4432342;32;20002;-77
2022/10/09 02:02:33;;;;;;;;;;;18.40;69.40;;;;;;4415962;32;20147;-77
2022/10/09 02:04:59;;;;;;;;;;;18.40;69.40;;;;;;4429504;32;19982;-77
2022/10/09 02:07:26;;;;;;;;;;;18.40;69.40;;;;;;4432656;32;20101;-77
2022/10/09 02:09:52;;;;;;;;;;;18.40;69.30;;;;;;4432000;32;19991;-77
2022/10/09 02:12:19;;;;;;;;;;;18.40;69.30;;;;;;4432547;32;19986;-77
2022/10/09 02:14:45;;;;;;;;;;;18.40;69.40;;;;;;4432070;32;19981;-77
2022/10/09 02:17:14;;;;;;;;;;;18.40;69.30;;;;;;4441461;32;19982;-77
2022/10/09 02:19:42;;;;;;;;;;;18.40;69.30;;;;;;4432286;32;20112;-77
2022/10/09 02:22:13;;;;;;;;;;;18.40;69.30;;;;;;4431971;32;19971;-77
2022/10/09 02:24:40;;;;;;;;;;;18.40;69.30;;;;;;4432325;32;19989;-77
2022/10/09 02:27:06;;;;;;;;;;;18.40;69.30;;;;;;4432016;32;20305;-77
2022/10/09 02:29:31;;;;;;;;;;;18.40;69.30;;;;;;4431844;32;19997;-77
2022/10/09 02:31:57;;;;;;;;;;;18.40;69.30;;;;;;4432241;32;19971;-77
2022/10/09 02:34:23;;;;;;;;;;;18.40;69.30;;;;;;4431725;32;20026;-77
2022/10/09 02:36:49;;;;;;;;;;;18.40;69.20;;;;;;4430774;32;20077;-76
2022/10/09 02:39:16;;;;;;;;;;;18.30;69.20;;;;;;4431684;32;20483;-77
2022/10/09 02:41:41;;;;;;;;;;;18.30;69.20;;;;;;4431837;32;20057;-77
2022/10/09 02:44:07;;;;;;;;;;;18.30;69.10;;;;;;4431288;32;20073;-77
2022/10/09 02:46:33;;;;;;;;;;;18.30;69.10;;;;;;4431831;32;20017;-77
2022/10/09 02:48:58;;;;;;;;;;;18.30;69.10;;;;;;4431572;32;19967;-77
2022/10/09 02:51:24;;;;;;;;;;;18.30;69.10;;;;;;4431804;32;19982;-77
2022/10/09 02:53:51;;;;;;;;;;;18.30;69.10;;;;;;4430518;32;19987;-77
2022/10/09 02:56:17;;;;;;;;;;;18.30;69.10;;;;;;4431695;32;20026;-77
2022/10/09 02:58:42;;;;;;;;;;;18.30;69.10;;;;;;4417477;32;20144;-77
2022/10/09 03:01:08;;;;;;;;;;;18.30;69.10;;;;;;4431688;32;20385;-77
2022/10/09 03:03:35;;;;;;;;;;;18.30;69.10;;;;;;4431576;32;19983;-77
2022/10/09 03:06:05;;;;;;;;;;;18.30;69.10;;;;;;4431414;32;19967;-77
2022/10/09 03:08:31;;;;;;;;;;;18.30;69.10;;;;;;4431124;32;19970;-77
2022/10/09 03:10:57;;;;;;;;;;;18.30;69.10;;;;;;4431321;32;20109;-77
2022/10/09 03:13:23;;;;;;;;;;;18.30;69.00;;;;;;4431132;32;20007;-77
2022/10/09 03:15:48;;;;;;;;;;;18.30;69.00;;;;;;4431242;32;19975;-77
2022/10/09 03:18:14;;;;;;;;;;;18.30;69.00;;;;;;4431323;32;19983;-77
2022/10/09 03:20:39;;;;;;;;;;;18.30;69.00;;;;;;4431367;32;19978;-77
2022/10/09 03:23:05;;;;;;;;;;;18.30;69.00;;;;;;4431159;32;19959;-77
2022/10/09 03:25:31;;;;;;;;;;;18.30;69.00;;;;;;4431390;32;20053;-77
2022/10/09 03:27:56;;;;;;;;;;;18.20;68.90;;;;;;4431106;32;20085;-76
2022/10/09 03:30:22;;;;;;;;;;;18.20;68.90;;;;;;4431344;32;20337;-77
2022/10/09 03:32:48;;;;;;;;;;;18.20;69.80;;;;;;4431058;32;19986;-77
2022/10/09 03:35:13;;;;;;;;;;;18.20;69.00;;;;;;4431359;32;20011;-77
2022/10/09 03:37:39;;;;;;;;;;;18.20;69.00;;;;;;4430927;32;20558;-77
2022/10/09 03:40:05;;;;;;;;;;;18.20;69.00;;;;;;4430772;32;19959;-77
2022/10/09 03:42:31;;;;;;;;;;;18.20;69.00;;;;;;4431092;32;20436;-77
2022/10/09 03:44:59;;;;;;;;;;;18.20;68.90;;;;;;4430365;32;20534;-77
2022/10/09 03:47:25;;;;;;;;;;;18.20;68.90;;;;;;4431105;32;20017;-77
2022/10/09 03:49:51;;;;;;;;;;;18.20;69.00;;;;;;4430819;32;19986;-77
2022/10/09 03:52:17;;;;;;;;;;;18.20;68.90;;;;;;4431072;32;20045;-77
2022/10/09 03:54:42;;;;;;;;;;;18.20;68.90;;;;;;4431086;32;19982;-77
2022/10/09 03:57:08;;;;;;;;;;;18.20;68.90;;;;;;4430565;32;19963;-77
2022/10/09 03:59:34;;;;;;;;;;;18.20;68.90;;;;;;4430688;32;20057;-77
2022/10/09 04:01:59;;;;;;;;;;;18.20;68.90;;;;;;4430633;32;19971;-76
2022/10/09 04:04:26;;;;;;;;;;;18.20;68.90;;;;;;4430655;32;20121;-77
2022/10/09 04:06:52;;;;;;;;;;;18.20;69.80;;;;;;4430381;32;19975;-77
2022/10/09 04:09:17;;;;;;;;;;;18.20;68.90;;;;;;4430571;32;19994;-77
2022/10/09 04:11:43;;;;;;;;;;;18.10;68.90;;;;;;4430526;32;20003;-77
2022/10/09 04:14:09;;;;;;;;;;;18.10;68.90;;;;;;4430099;32;19986;-77
2022/10/09 04:16:35;;;;;;;;;;;18.10;68.90;;;;;;4430387;32;19975;-77
2022/10/09 04:19:00;;;;;;;;;;;18.10;68.90;;;;;;4430240;32;19967;-77
2022/10/09 04:21:26;;;;;;;;;;;18.10;68.90;;;;;;4430319;32;19975;-77
2022/10/09 04:23:52;;;;;;;;;;;18.10;68.80;;;;;;4430283;32;19974;-77
2022/10/09 04:26:21;;;;;;;;;;;18.10;68.80;;;;;;4430644;32;20105;-76
2022/10/09 04:28:49;;;;;;;;;;;18.10;68.80;;;;;;4430347;32;20421;-77
2022/10/09 04:31:14;;;;;;;;;;;18.10;68.80;;;;;;4419789;32;20048;-76
2022/10/09 04:33:40;;;;;;;;;;;18.10;68.80;;;;;;4430196;32;20408;-77
2022/10/09 04:36:06;;;;;;;;;;;18.10;68.80;;;;;;4430047;32;19983;-77
2022/10/09 04:38:32;;;;;;;;;;;18.10;68.80;;;;;;4416534;32;20041;-77
2022/10/09 04:40:58;;;;;;;;;;;18.10;68.70;;;;;;4429941;32;20320;-77
2022/10/09 04:43:24;;;;;;;;;;;18.10;68.70;;;;;;4429791;32;20026;-76
2022/10/09 04:45:50;;;;;;;;;;;18.10;68.80;;;;;;4430022;32;19975;-76
2022/10/09 04:48:16;;;;;;;;;;;18.10;68.70;;;;;;4429822;32;19982;-77
2022/10/09 04:50:41;;;;;;;;;;;18.10;69.50;;;;;;4430200;32;19983;-77
2022/10/09 04:53:08;;;;;;;;;;;18.10;68.70;;;;;;4429746;32;19977;-77
2022/10/09 04:55:40;;;;;;;;;;;18.10;68.70;;;;;;4430151;32;20032;-77
2022/10/09 04:58:07;;;;;;;;;;;18.00;68.60;;;;;;4429744;32;20044;-77
2022/10/09 05:00:33;;;;;;;;;;;18.00;68.70;;;;;;4429844;32;19989;-77
2022/10/09 05:02:58;;;;;;;;;;;18.00;68.60;;;;;;4429875;32;19983;-77
2022/10/09 05:05:25;;;;;;;;;;;18.00;68.60;;;;;;4429726;32;20069;-77
2022/10/09 05:07:50;;;;;;;;;;;18.00;68.60;;;;;;4430207;32;19979;-77
2022/10/09 05:10:16;;;;;;;;;;;18.00;68.60;;;;;;4429429;32;19959;-77
2022/10/09 05:12:42;;;;;;;;;;;18.00;68.60;;;;;;4430054;32;20325;-76
2022/10/09 05:15:08;;;;;;;;;;;18.00;69.40;;;;;;4415658;32;20337;-77
2022/10/09 05:17:33;;;;;;;;;;;18.00;68.60;;;;;;4431833;32;20041;-77
2022/10/09 05:19:59;;;;;;;;;;;18.00;68.60;;;;;;4434984;32;19985;-77
2022/10/09 05:22:25;;;;;;;;;;;18.00;68.50;;;;;;4434801;32;20053;-77
2022/10/09 05:24:50;;;;;;;;;;;18.00;68.50;;;;;;4434938;32;19975;-77
2022/10/09 05:27:16;;;;;;;;;;;18.00;68.60;;;;;;4434695;32;20133;-77
2022/10/09 05:29:42;;;;;;;;;;;18.00;68.60;;;;;;4435221;32;20313;-77
2022/10/09 05:32:08;;;;;;;;;;;18.00;68.50;;;;;;4434840;32;19985;-77
2022/10/09 05:34:34;;;;;;;;;;;18.00;68.50;;;;;;4434560;32;20089;-77
2022/10/09 05:36:59;;;;;;;;;;;18.00;68.50;;;;;;4434751;32;20113;-77
2022/10/09 05:39:25;;;;;;;;;;;17.90;68.40;;;;;;4434561;32;19971;-77
2022/10/09 05:41:51;;;;;;;;;;;17.90;68.40;;;;;;4420960;32;20394;-77
2022/10/09 05:44:17;;;;;;;;;;;17.90;68.50;;;;;;4434365;32;19987;-77
2022/10/09 05:46:42;;;;;;;;;;;17.90;68.40;;;;;;4434585;32;20105;-77
2022/10/09 05:49:08;;;;;;;;;;;17.90;68.40;;;;;;4434586;32;20381;-77
2022/10/09 05:51:35;;;;;;;;;;;17.90;68.40;;;;;;4434661;32;20097;-77
2022/10/09 05:54:02;;;;;;;;;;;17.90;68.40;;;;;;4434676;32;19985;-77
2022/10/09 05:56:29;;;;;;;;;;;17.90;68.40;;;;;;4435035;32;20001;-77
2022/10/09 05:59:18;;;;;;;;;;;17.90;68.40;;;;;;4434378;32;19975;-77
2022/10/09 06:01:48;;;;;;;;;;;17.90;68.40;;;;;;4434500;32;20026;-77
2022/10/09 06:04:15;;;;;;;;;;;17.90;68.40;;;;;;4440715;32;20056;-76
2022/10/09 06:06:42;;;;;;;;;;;17.90;68.50;;;;;;4434624;32;20049;-77
2022/10/09 06:09:08;;;;;;;;;;;17.90;68.40;;;;;;4423844;32;19987;-77
2022/10/09 06:11:35;;;;;;;;;;;17.90;68.40;;;;;;4434669;32;20033;-77
2022/10/09 06:14:02;;;;;;;;;;;17.90;68.50;;;;;;4434119;32;20056;-77
2022/10/09 06:16:29;;;;;;;;;;;17.90;68.50;;;;;;4434441;32;20404;-77
2022/10/09 06:18:55;;;;;;;;;;;17.90;68.40;;;;;;4434321;32;20061;-77
2022/10/09 06:21:20;;;;;;;;;;;17.80;68.40;;;;;;4434592;32;20432;-77
2022/10/09 06:23:53;;;;;;;;;;;17.80;68.50;;;;;;4434421;32;20105;-77
2022/10/09 06:26:20;;;;;;;;;;;17.80;68.50;;;;;;4428555;32;19987;-77
2022/10/09 06:28:46;;;;;;;;;;;17.80;68.40;;;;;;4419530;32;19975;-77
2022/10/09 06:31:13;;;;;;;;;;;17.80;68.50;;;;;;4431934;32;20411;-77
2022/10/09 06:33:40;;;;;;;;;;;17.80;68.50;;;;;;4432068;32;19982;-77
2022/10/09 06:36:10;;;;;;;;;;;17.80;68.50;;;;;;4431696;32;19990;-77
2022/10/09 06:38:36;;;;;;;;;;;17.80;68.50;;;;;;4431892;32;20428;-77
2022/10/09 06:41:03;;;;;;;;;;;17.80;68.50;;;;;;4431795;32;19986;-76
2022/10/09 06:43:29;;;;;;;;;;;17.80;68.50;;;;;;4431610;32;20116;-77
2022/10/09 06:45:55;;;;;;;;;;;17.80;68.50;;;;;;4431783;32;20328;-77
2022/10/09 06:48:20;;;;;;;;;;;17.80;68.50;;;;;;4431597;32;20475;-77
2022/10/09 06:50:46;;;;;;;;;;;17.80;68.60;;;;;;4431987;32;19975;-76
2022/10/09 06:53:12;;;;;;;;;;;17.80;68.60;;;;;;4431680;32;20585;-77
2022/10/09 06:55:37;;;;;;;;;;;17.80;68.60;;;;;;4431992;32;20033;-74
2022/10/09 06:58:03;;;;;;;;;;;17.80;68.60;;;;;;4431720;32;19971;-75
2022/10/09 07:00:29;;;;;;;;;;;17.80;68.50;;;;;;4431470;32;20282;-75
2022/10/09 07:02:54;;;;;;;;;;;17.70;67.40;;;;;;4431686;32;19985;-77
2022/10/09 07:05:20;;;;;;;;;;;17.70;66.50;;;;;;4431402;32;19967;-76
2022/10/09 07:07:47;;;;;;;;;;;17.80;66.60;;;;;;4431658;32;20042;-76
2022/10/09 07:10:12;;;;;;;;;;;17.70;67.10;;;;;;4415381;32;20390;-76
2022/10/09 07:12:38;;;;;;;;;;;17.80;67.30;;;;;;4431583;32;19975;-76
2022/10/09 07:15:04;;;;;;;;;;;17.80;67.40;;;;;;4414761;32;20101;-75
2022/10/09 07:17:30;;;;;;;;;;;17.80;67.60;;;;;;4430429;32;19982;-76
2022/10/09 07:19:56;;;;;;;;;;;17.70;67.50;;;;;;4414973;32;20291;-76
2022/10/09 07:22:21;;;;;;;;;;;17.70;67.60;;;;;;4428775;32;20053;-76
2022/10/09 07:24:49;;;;;;;;;;;17.70;67.70;;;;;;4431412;32;19979;-76
2022/10/09 07:27:15;;;;;;;;;;;17.80;67.80;;;;;;4431091;32;20603;-76
2022/10/09 07:29:41;;;;;;;;;;;17.80;68.70;;;;;;4431310;32;20579;-77
2022/10/09 07:32:06;;;;;;;;;;;17.80;67.90;;;;;;4431131;32;19979;-76
2022/10/09 07:34:32;;;;;;;;;;;17.80;67.90;;;;;;4417165;32;20066;-76
2022/10/09 07:36:57;;;;;;;;;;;17.80;68.00;;;;;;4431163;32;19963;-76
2022/10/09 07:39:23;;;;;;;;;;;17.80;68.00;;;;;;4430753;32;20010;-76
2022/10/09 07:41:50;;;;;;;;;;;17.80;68.10;;;;;;4430828;32;19979;-76
2022/10/09 07:44:16;;;;;;;;;;;17.80;68.00;;;;;;4430532;32;19979;-76
2022/10/09 07:46:42;;;;;;;;;;;17.80;68.10;;;;;;4430876;32;20308;-77
2022/10/09 07:49:08;;;;;;;;;;;17.80;68.10;;;;;;4431032;32;20389;-76
2022/10/09 07:51:34;;;;;;;;;;;17.80;68.10;;;;;;4430775;32;20506;-77
2022/10/09 07:54:01;;;;;;;;;;;17.80;68.10;;;;;;4430835;32;19974;-76
2022/10/09 07:56:28;;;;;;;;;;;17.90;68.20;;;;;;4430800;32;20022;-76
2022/10/09 07:58:55;;;;;;;;;;;17.90;69.00;;;;;;4430481;32;20173;-76
2022/10/09 08:01:21;;;;;;;;;;;17.90;68.20;;;;;;4430579;32;19985;-76
2022/10/09 08:03:47;;;;;;;;;;;17.90;68.30;;;;;;4430549;32;20407;-75
2022/10/09 08:06:13;;;;;;;;;;;17.90;68.30;;;;;;4430598;32;20035;-75
2022/10/09 08:08:40;;;;;;;;;;;17.90;68.30;;;;;;4430305;32;20060;-75
2022/10/09 08:11:07;;;;;;;;;;;17.90;68.20;;;;;;4430567;32;20007;-76
2022/10/09 08:13:33;;;;;;;;;;;18.00;68.30;;;;;;4430113;32;20005;-76
2022/10/09 08:15:59;;;;;;;;;;;17.90;68.30;;;;;;4414360;32;20389;-75
2022/10/09 08:18:25;;;;;;;;;;;17.90;68.20;;;;;;4426087;32;20547;-74
2022/10/09 08:20:58;;;;;;;;;;;17.90;68.20;;;;;;4417111;32;20018;-74
2022/10/09 08:23:24;;;;;;;;;;;18.00;68.20;;;;;;4416428;32;19971;-75
2022/10/09 08:25:50;;;;;;;;;;;18.00;68.10;;;;;;4430093;32;20386;-75
2022/10/09 08:28:15;;;;;;;;;;;18.00;68.00;;;;;;4416226;32;19981;-76
2022/10/09 08:30:41;;;;;;;;;;;18.00;68.00;;;;;;4430207;32;19977;-75
2022/10/09 08:33:07;;;;;;;;;;;18.00;67.90;;;;;;4430176;32;20033;-76
2022/10/09 08:35:33;;;;;;;;;;;18.00;67.70;;;;;;4430225;32;20333;-75
2022/10/09 08:37:58;;;;;;;;;;;18.00;67.60;;;;;;4429761;32;20025;-76
2022/10/09 08:40:28;;;;;;;;;;;18.00;67.50;;;;;;4429959;32;20419;-75
2022/10/09 08:43:03;;;;;;;;;;;18.00;67.40;;;;;;4430008;32;19994;-75
2022/10/09 08:45:30;;;;;;;;;;;18.10;67.50;;;;;;4415659;32;20384;-75
2022/10/09 08:47:59;;;;;;;;;;;18.10;67.70;;;;;;4430223;32;19971;-75
2022/10/09 08:50:26;;;;;;;;;;;18.10;67.80;;;;;;4429936;32;20038;-75
2022/10/09 08:53:01;;;;;;;;;;;18.10;67.90;;;;;;4429440;32;19990;-75
2022/10/09 08:55:45;;;;;;;;;;;18.10;68.00;;;;;;4429514;32;20393;-75
2022/10/09 08:58:15;;;;;;;;;;;18.10;68.00;;;;;;4429792;32;19986;-75
2022/10/09 09:00:48;;;;;;;;;;;18.10;68.10;;;;;;4429864;32;19967;-75
2022/10/09 09:03:20;;;;;;;;;;;18.10;68.10;;;;;;4430176;32;20116;-75
2022/10/09 09:05:52;;;;;;;;;;;18.10;68.20;;;;;;4429820;32;19970;-75
2022/10/09 09:08:24;;;;;;;;;;;18.20;68.20;;;;;;4429879;32;19990;-75
2022/10/09 09:11:01;;;;;;;;;;;18.10;68.20;;;;;;4418940;32;19979;-75
2022/10/09 09:13:45;;;;;;;;;;;18.20;68.20;;;;;;4424343;32;19986;-75
2022/10/09 09:16:11;;;;;;;;;;;18.20;68.20;;;;;;4429707;32;19975;-75
2022/10/09 09:18:48;;;;;;;;;;;18.20;68.20;;;;;;4429797;32;19977;-75
2022/10/09 09:21:16;;;;;;;;;;;18.20;68.30;;;;;;4429905;32;19994;-75
2022/10/09 09:23:43;;;;;;;;;;;18.20;68.30;;;;;;4429816;32;20112;-74
2022/10/09 09:26:14;;;;;;;;;;;18.20;68.20;;;;;;4429871;32;19986;-75
2022/10/09 09:28:41;;;;;;;;;;;18.20;68.10;;;;;;4430002;32;19971;-75
2022/10/09 09:31:27;;;;;;;;;;;18.20;68.10;;;;;;4429586;32;20348;-75
2022/10/09 09:34:11;;;;;;;;;;;18.20;68.10;;;;;;4429954;32;20026;-75
2022/10/09 09:36:46;;;;;;;;;;;18.30;68.20;;;;;;4415926;32;20407;-75
2022/10/09 09:39:12;;;;;;;;;;;18.30;68.20;;;;;;4429524;32;19990;-76
2022/10/09 09:41:39;;;;;;;;;;;18.20;68.10;;;;;;4429714;32;19970;-73
2022/10/09 09:44:06;;;;;;;;;;;18.30;68.10;;;;;;4429258;32;20460;-75
2022/10/09 09:46:32;;;;;;;;;;;18.30;67.80;;;;;;4429350;32;20118;-75
2022/10/09 09:48:58;;;;;;;;;;;18.30;67.90;;;;;;4429751;32;19967;-75
2022/10/09 09:51:26;;;;;;;;;;;18.30;67.90;;;;;;4429226;32;20003;-76
2022/10/09 09:53:55;;;;;;;;;;;18.30;67.70;;;;;;4408156;32;34342;-75
2022/10/09 09:56:30;;;;;;;;;;;18.30;67.80;;;;;;4427617;32;20483;-75
2022/10/09 09:58:56;;;;;;;;;;;18.30;67.80;;;;;;4428842;32;20006;-75
2022/10/09 10:01:23;;;;;;;;;;;18.30;68.00;;;;;;4418415;32;19966;-75
2022/10/09 10:03:50;;;;;;;;;;;18.30;67.60;;;;;;4426242;32;19999;-75
2022/10/09 10:06:39;;;;;;;;;;;18.30;67.50;;;;;;4425513;32;19971;-76
2022/10/09 10:09:12;;;;;;;;;;;18.30;67.70;;;;;;4420586;32;20101;-75
2022/10/09 10:11:44;;;;;;;;;;;18.30;67.50;;;;;;4422570;32;19989;-75
2022/10/09 10:14:14;;;;;;;;;;;18.30;67.30;;;;;;4431737;32;19982;-75
2022/10/09 10:16:40;;;;;;;;;;;18.30;67.50;;;;;;4431971;32;20297;-75
2022/10/09 10:19:17;;;;;;;;;;;18.30;67.30;;;;;;4431585;32;20002;-75
2022/10/09 10:21:47;;;;;;;;;;;18.30;67.20;;;;;;4431798;32;20060;-75
2022/10/09 10:24:17;;;;;;;;;;;18.30;67.20;;;;;;4431739;32;19983;-76
2022/10/09 10:26:48;;;;;;;;;;;18.30;67.20;;;;;;4431641;32;20412;-75
2022/10/09 10:29:16;;;;;;;;;;;18.30;67.10;;;;;;4431815;32;19984;-74
2022/10/09 10:31:46;;;;;;;;;;;18.30;67.20;;;;;;4431473;32;19974;-76
2022/10/09 10:34:32;;;;;;;;;;;18.30;67.10;;;;;;4431528;32;20391;-76
2022/10/09 10:37:10;;;;;;;;;;;18.40;67.30;;;;;;4431416;32;20064;-75
2022/10/09 10:39:40;;;;;;;;;;;18.30;67.50;;;;;;4431397;32;19986;-75
2022/10/09 10:42:10;;;;;;;;;;;18.30;67.10;;;;;;4431379;32;19979;-75
2022/10/09 10:44:47;;;;;;;;;;;18.30;66.70;;;;;;4431276;32;19993;-75
2022/10/09 10:47:17;;;;;;;;;;;18.30;66.90;;;;;;4431562;32;20368;-75
2022/10/09 10:49:43;;;;;;;;;;;18.40;66.70;;;;;;4431263;32;20396;-76
2022/10/09 10:52:12;;;;;;;;;;;18.40;66.80;;;;;;4421987;32;20382;-76
2022/10/09 10:54:38;;;;;;;;;;;18.40;66.60;;;;;;4427825;32;19986;-76
2022/10/09 10:57:16;;;;;;;;;;;18.40;66.70;;;;;;4441567;32;20053;-75
2022/10/09 10:59:49;;;;;;;;;;;18.40;66.40;;;;;;4431122;32;20312;-76
2022/10/09 11:02:28;;;;;;;;;;;18.40;66.30;;;;;;4431088;32;20029;-76
2022/10/09 11:05:06;;;;;;;;;;;18.40;66.30;;;;;;4431292;32;19986;-76
2022/10/09 11:07:31;;;;;;;;;;;18.40;66.50;;;;;;4431005;32;19979;-76
2022/10/09 11:10:17;;;;;;;;;;;18.40;66.50;;;;;;4431010;32;20057;-75
2022/10/09 11:12:53;;;;;;;;;;;18.40;66.80;;;;;;4431311;32;20097;-76
2022/10/09 11:15:38;;;;;;;;;;;18.40;66.50;;;;;;4439277;32;19993;-75
2022/10/09 11:18:26;;;;;;;;;;;18.40;66.50;;;;;;4423865;32;19999;-75
2022/10/09 11:20:55;;;;;;;;;;;18.40;65.90;;;;;;4399507;32;20125;-74
2022/10/09 11:23:39;;;;;;;;;;;18.40;65.90;;;;;;4425896;32;19988;-75
2022/10/09 11:26:28;;;;;;;;;;;18.40;66.20;;;;;;4427881;32;20137;-76
2022/10/09 11:29:00;;;;;;;;;;;18.40;66.20;;;;;;4415759;32;20117;-72
2022/10/09 11:31:29;;;;;;;;;;;18.40;66.60;;;;;;4430915;32;20069;-80
2022/10/09 11:33:58;;;;;;;;;;;18.40;66.50;;;;;;4425172;32;20344;-80
2022/10/09 11:36:26;;;;;;;;;;;18.40;66.20;;;;;;4423258;32;19982;-80
2022/10/09 11:38:57;;;;;;;;;;;18.40;65.70;;;;;;4416962;32;20422;-87
2022/10/09 11:41:24;;;;;;;;;;;18.40;66.20;;;;;;4430873;32;20332;-82
2022/10/09 11:44:04;;;;;;;;;;;18.40;66.40;;;;;;4430660;32;20061;-86
2022/10/09 11:46:46;;;;;;;;;;;18.40;65.70;;;;;;4416980;32;20132;-85
2022/10/09 11:49:18;;;;;;;;;;;18.40;65.70;;;;;;4429157;32;20329;-90
2022/10/09 11:51:49;;;;;;;;;;;18.40;65.70;;;;;;4426786;32;20129;-86
2022/10/09 11:54:16;;;;;;;;;;;18.40;65.60;;;;;;4405507;32;19971;-88
2022/10/09 11:56:58;;;;;;;;;;;18.40;66.00;;;;;;4425308;32;19992;-89
2022/10/09 11:59:29;;;;;;;;;;;18.40;65.70;;;;;;4426692;32;20447;-88
2022/10/09 12:02:00;;;;;;;;;;;18.40;65.80;;;;;;4426383;32;20029;-77
2022/10/09 12:04:30;;;;;;;;;;;18.40;65.60;;;;;;4427159;32;20047;-85
2022/10/09 12:07:03;;;;;;;;;;;18.40;65.80;;;;;;4427289;32;20116;-86
2022/10/09 12:09:40;;;;;;;;;;;18.40;66.10;;;;;;4430137;32;19989;-85
2022/10/09 12:12:15;;;;;;;;;;;18.40;65.80;;;;;;4424901;32;20013;-91
2022/10/09 12:14:43;;;;;;;;;;;18.40;65.90;;;;;;4423386;32;19989;-92
2022/10/09 12:17:21;;;;;;;;;;;18.40;66.00;;;;;;4427179;32;20069;-88
2022/10/09 12:19:54;;;;;;;;;;;18.40;66.00;;;;;;4422544;32;19995;-90
2022/10/09 12:22:32;;;;;;;;;;;18.40;65.70;;;;;;4426993;32;19970;-92
2022/10/09 12:25:02;;;;;;;;;;;18.40;65.80;;;;;;4423372;32;19986;-91
2022/10/09 12:27:36;;;;;;;;;;;18.50;66.10;;;;;;4430353;32;19986;-88
2022/10/09 12:30:12;;;;;;;;;;;18.50;66.20;;;;;;4422811;32;20305;-88
2022/10/09 12:32:44;;;;;;;;;;;18.50;66.30;;;;;;4430459;32;19981;-89
2022/10/09 12:35:30;;;;;;;;;;;18.50;66.30;;;;;;4423221;32;20017;-89
2022/10/09 12:37:55;;;;;;;;;;;18.50;66.00;;;;;;4429560;32;20038;-92
2022/10/09 12:40:26;;;;;;;;;;;18.50;66.10;;;;;;4427972;32;20010;-90
2022/10/09 12:42:52;;;;;;;;;;;18.50;66.20;;;;;;4428585;32;20394;-90
2022/10/09 12:45:23;;;;;;;;;;;18.50;66.10;;;;;;4428906;32;20109;-90
2022/10/09 12:47:49;;;;;;;;;;;18.50;65.50;;;;;;4430188;32;19987;-89
2022/10/09 12:50:15;;;;;;;;;;;18.50;65.90;;;;;;4416086;32;20019;-90
2022/10/09 12:52:56;;;;;;;;;;;18.50;65.90;;;;;;4430455;32;20003;-89
2022/10/09 12:55:24;;;;;;;;;;;18.50;65.70;;;;;;4424344;32;20022;-90
2022/10/09 12:57:51;;;;;;;;;;;18.50;65.70;;;;;;4430217;32;20536;-89
2022/10/09 13:00:17;;;;;;;;;;;18.50;65.60;;;;;;4430423;32;19971;-81
2022/10/09 13:02:43;;;;;;;;;;;18.50;65.70;;;;;;4430178;32;20422;-87
2022/10/09 13:05:08;;;;;;;;;;;18.50;65.30;;;;;;4430030;32;19979;-87
2022/10/09 13:07:34;;;;;;;;;;;18.50;65.10;;;;;;4430540;32;19987;-87
2022/10/09 13:10:03;;;;;;;;;;;18.50;65.70;;;;;;4430018;32;19974;-87
2022/10/09 13:12:30;;;;;;;;;;;18.50;65.20;;;;;;4430034;32;20078;-86
2022/10/09 13:15:01;;;;;;;;;;;18.50;65.40;;;;;;4429849;32;20097;-87
2022/10/09 13:17:29;;;;;;;;;;;18.50;65.40;;;;;;4429959;32;19991;-86
2022/10/09 13:19:56;;;;;;;;;;;18.50;65.30;;;;;;4430012;32;20034;-87
2022/10/09 13:22:24;;;;;;;;;;;18.50;65.30;;;;;;4429935;32;19993;-88
2022/10/09 13:24:52;;;;;;;;;;;18.50;65.30;;;;;;4430399;32;20396;-87
2022/10/09 13:27:18;;;;;;;;;;;18.50;64.90;;;;;;4430671;32;19986;-88
2022/10/09 13:29:44;;;;;;;;;;;18.50;64.80;;;;;;4430764;32;20052;-86
2022/10/09 13:32:14;;;;;;;;;;;18.50;64.50;;;;;;4430043;32;20093;-84
2022/10/09 13:34:40;;;;;;;;;;;18.50;64.60;;;;;;4430289;32;19975;-87
2022/10/09 13:37:06;;;;;;;;;;;18.50;64.50;;;;;;4430001;32;20045;-84
2022/10/09 13:39:32;;;;;;;;;;;18.50;64.40;;;;;;4431917;32;20021;-87
2022/10/09 13:41:58;;;;;;;;;;;18.50;64.40;;;;;;4432814;32;19971;-86
2022/10/09 13:44:24;;;;;;;;;;;18.50;64.50;;;;;;4432558;32;20061;-85
2022/10/09 13:46:50;;;;;;;;;;;18.50;64.70;;;;;;4432664;32;20022;-80
2022/10/09 13:49:15;;;;;;;;;;;18.50;64.80;;;;;;4419121;32;20158;-78
2022/10/09 13:51:41;;;;;;;;;;;18.50;64.60;;;;;;4432737;32;19959;-74
2022/10/09 13:54:07;;;;;;;;;;;18.50;64.80;;;;;;4432912;32;20014;-78
2022/10/09 13:56:33;;;;;;;;;;;18.50;63.80;;;;;;4432662;32;19994;-78
2022/10/09 13:58:59;;;;;;;;;;;18.50;64.10;;;;;;4432830;32;19982;-90
2022/10/09 14:01:24;;;;;;;;;;;18.50;65.10;;;;;;4432916;32;20101;-90
2022/10/09 14:03:50;;;;;;;;;;;18.50;64.40;;;;;;4432663;32;19970;-90
2022/10/09 14:06:16;;;;;;;;;;;18.50;64.20;;;;;;4432463;32;19978;-89
2022/10/09 14:08:42;;;;;;;;;;;18.50;64.30;;;;;;4432514;32;20033;-90
2022/10/09 14:11:08;;;;;;;;;;;18.50;64.30;;;;;;4432794;32;19971;-90
2022/10/09 14:13:34;;;;;;;;;;;18.50;64.30;;;;;;4432610;32;20443;-89
2022/10/09 14:16:04;;;;;;;;;;;18.50;64.20;;;;;;4432637;32;20385;-89
2022/10/09 14:18:30;;;;;;;;;;;18.50;64.10;;;;;;4432699;32;19987;-90
2022/10/09 14:20:56;;;;;;;;;;;18.50;64.10;;;;;;4443245;32;20328;-90
2022/10/09 14:23:22;;;;;;;;;;;18.50;64.10;;;;;;4432637;32;19970;-91